Time;durP1;ratioP1;P1;durP2;ratioP2;P2;SDS_P1;SDS_P2;PMS_P1;PMS_P2;Temp;Humidity;BMP_temperature;BMP_pressure;BME280_temperature;BME280_humidity;BME280_pressure;Samples;Min_cycle;Max_cycle;Signal;HPM_P1;HPM_P2
2020/12/20 06:02:20;;;;;;;21.13;2.22;;;;;;;;;;5082698;28;20441;-60
2020/12/20 06:04:47;;;;;;;16.25;2.45;;;;;;;;;;5077612;28;20029;-59
2020/12/20 06:07:14;;;;;;;14.35;2.20;;;;;;;;;;5066816;28;20412;-59
2020/12/20 06:09:50;;;;;;;11.55;1.70;;;;;;;;;;5067870;28;20053;-60
2020/12/20 06:12:21;;;;;;;21.73;2.40;;;;;;;;;;5070420;28;20040;-60
2020/12/20 06:14:48;;;;;;;20.63;2.63;;;;;;;;;;5068045;28;20037;-60
2020/12/20 06:17:21;;;;;;;22.67;1.92;;;;;;;;;;5068238;28;20029;-60
2020/12/20 06:19:48;;;;;;;12.68;2.33;;;;;;;;;;5068256;28;20036;-60
2020/12/20 06:22:18;;;;;;;17.13;2.17;;;;;;;;;;5066567;28;20038;-60
2020/12/20 06:24:46;;;;;;;16.58;2.25;;;;;;;;;;5066280;28;20071;-60
2020/12/20 06:27:14;;;;;;;19.40;2.50;;;;;;;;;;5071331;28;20413;-60
2020/12/20 06:29:44;;;;;;;18.85;2.75;;;;;;;;;;5069438;28;20123;-60
2020/12/20 06:32:13;;;;;;;26.73;2.80;;;;;;;;;;5064368;28;20041;-60
2020/12/20 06:34:40;;;;;;;14.32;1.80;;;;;;;;;;5067964;28;20034;-60
2020/12/20 06:37:10;;;;;;;14.93;2.42;;;;;;;;;;5065127;28;20097;-60
2020/12/20 06:39:56;;;;;;;14.40;2.10;;;;;;;;;;5068105;28;20485;-60
2020/12/20 06:42:49;;;;;;;18.33;2.00;;;;;;;;;;5083061;28;20035;-60
2020/12/20 06:45:16;;;;;;;14.85;1.55;;;;;;;;;;5067979;28;20063;-59
2020/12/20 06:47:49;;;;;;;22.02;1.98;;;;;;;;;;5071071;28;20082;-60
2020/12/20 06:50:35;;;;;;;19.92;2.65;;;;;;;;;;5064221;28;20519;-60
2020/12/20 06:53:03;;;;;;;13.00;1.70;;;;;;;;;;5064846;28;20075;-61
2020/12/20 06:55:29;;;;;;;18.63;3.05;;;;;;;;;;5068164;28;20028;-60
2020/12/20 06:58:04;;;;;;;21.08;2.00;;;;;;;;;;5063172;28;20103;-60
2020/12/20 07:00:30;;;;;;;;;;;;;;;;;;5068542;28;20102;-60
2020/12/20 07:02:56;;;;;;;17.45;2.00;;;;;;;;;;5050240;28;19908;-60
2020/12/20 07:05:35;;;;;;;11.68;3.00;;;;;;;;;;5050200;28;20590;-60
2020/12/20 07:08:07;;;;;;;18.85;1.70;;;;;;;;;;5050297;28;20063;-59
2020/12/20 07:10:57;;;;;;;15.27;1.77;;;;;;;;;;5050300;28;20061;-60
2020/12/20 07:13:35;;;;;;;21.00;2.78;;;;;;;;;;5050087;28;20508;-60
2020/12/20 07:16:08;;;;;;;22.55;2.78;;;;;;;;;;5035455;28;20063;-60
2020/12/20 07:18:53;;;;;;;18.77;2.38;;;;;;;;;;5052608;28;20059;-60
2020/12/20 07:21:19;;;;;;;21.52;2.88;;;;;;;;;;5053561;28;20425;-60
2020/12/20 07:23:49;;;;;;;31.75;2.65;;;;;;;;;;5050096;28;20033;-60
2020/12/20 07:26:16;;;;;;;20.17;2.55;;;;;;;;;;5050065;28;20025;-60
2020/12/20 07:28:43;;;;;;;18.63;2.15;;;;;;;;;;5050078;28;20025;-60
2020/12/20 07:31:16;;;;;;;23.60;1.88;;;;;;;;;;5049171;28;20098;-60
2020/12/20 07:33:45;;;;;;;14.40;2.45;;;;;;;;;;5050661;28;20032;-61
2020/12/20 07:36:11;;;;;;;23.90;3.03;;;;;;;;;;5051407;28;20537;-60
2020/12/20 07:38:37;;;;;;;13.88;2.00;;;;;;;;;;5049045;28;20119;-60
2020/12/20 07:41:10;;;;;;;16.65;2.03;;;;;;;;;;5049059;28;20047;-60
2020/12/20 07:43:37;;;;;;;31.35;3.15;;;;;;;;;;5049041;28;20032;-58
2020/12/20 07:46:04;;;;;;;21.45;2.45;;;;;;;;;;5048836;28;20041;-58
2020/12/20 07:48:30;;;;;;;22.50;2.10;;;;;;;;;;5051355;28;20017;-60
2020/12/20 07:51:13;;;;;;;15.63;1.88;;;;;;;;;;5049832;28;20068;-59
2020/12/20 07:53:48;;;;;;;10.05;1.80;;;;;;;;;;5048960;28;20029;-60
2020/12/20 07:56:33;;;;;;;20.48;2.00;;;;;;;;;;5048502;28;20029;-58
2020/12/20 07:59:01;;;;;;;19.47;2.83;;;;;;;;;;5049481;28;20040;-60
2020/12/20 08:01:27;;;;;;;15.13;1.73;;;;;;;;;;5048483;28;20102;-59
2020/12/20 08:04:04;;;;;;;19.15;2.53;;;;;;;;;;5045989;28;20028;-60
2020/12/20 08:06:30;;;;;;;21.75;2.95;;;;;;;;;;5048482;28;20474;-59
2020/12/20 08:09:09;;;;;;;23.17;2.45;;;;;;;;;;5049907;28;20037;-59
2020/12/20 08:11:36;;;;;;;18.42;2.75;;;;;;;;;;5048003;28;20040;-59
2020/12/20 08:14:12;;;;;;;14.95;1.92;;;;;;;;;;5047511;28;20409;-59
2020/12/20 08:16:39;;;;;;;16.90;2.22;;;;;;;;;;5048361;28;20033;-60
2020/12/20 08:19:24;;;;;;;15.10;1.90;;;;;;;;;;5048446;28;20830;-57
2020/12/20 08:21:54;;;;;;;26.73;3.40;;;;;;;;;;5048891;28;20501;-60
2020/12/20 08:24:21;;;;;;;24.30;2.90;;;;;;;;;;5050708;28;20021;-59
2020/12/20 08:26:47;;;;;;;23.85;2.70;;;;;;;;;;5048026;28;20037;-59
2020/12/20 08:29:15;;;;;;;23.58;2.88;;;;;;;;;;5047997;28;20037;-59
2020/12/20 08:31:42;;;;;;;20.02;3.17;;;;;;;;;;5048237;28;20040;-59
2020/12/20 08:34:19;;;;;;;20.10;2.85;;;;;;;;;;5048432;28;20020;-58
2020/12/20 08:37:17;;;;;;;26.17;3.25;;;;;;;;;;5049451;28;20092;-58
2020/12/20 08:40:03;;;;;;;26.52;3.45;;;;;;;;;;5048461;28;20036;-59
2020/12/20 08:42:33;;;;;;;26.42;3.10;;;;;;;;;;5047598;28;20041;-60
2020/12/20 08:45:10;;;;;;;28.98;3.33;;;;;;;;;;5050482;28;20041;-57
2020/12/20 08:47:36;;;;;;;25.02;3.33;;;;;;;;;;5047941;28;20023;-57
2020/12/20 08:50:03;;;;;;;19.60;3.05;;;;;;;;;;5048158;28;20390;-58
2020/12/20 08:52:30;;;;;;;30.95;3.30;;;;;;;;;;5048384;28;20544;-59
2020/12/20 08:54:56;;;;;;;22.20;2.80;;;;;;;;;;5048111;28;20031;-59
2020/12/20 08:57:45;;;;;;;20.92;3.00;;;;;;;;;;5051253;28;20451;-59
2020/12/20 09:00:13;;;;;;;16.95;3.30;;;;;;;;;;5049803;28;20029;-59
2020/12/20 09:02:39;;;;;;;25.55;3.25;;;;;;;;;;5047463;28;20117;-59
2020/12/20 09:05:07;;;;;;;27.58;3.33;;;;;;;;;;5047937;28;20078;-58
2020/12/20 09:07:47;;;;;;;17.95;2.60;;;;;;;;;;5048470;28;20048;-58
2020/12/20 09:10:33;;;;;;;23.25;2.97;;;;;;;;;;5048418;28;20076;-58
2020/12/20 09:13:06;;;;;;;19.27;3.42;;;;;;;;;;5014324;28;20037;-59
2020/12/20 09:15:32;;;;;;;25.23;3.90;;;;;;;;;;5048428;28;20040;-59
2020/12/20 09:17:59;;;;;;;24.40;4.07;;;;;;;;;;5048293;28;20033;-59
2020/12/20 09:20:30;;;;;;;27.40;4.70;;;;;;;;;;5045902;28;20077;-58
2020/12/20 09:23:00;;;;;;;20.13;3.42;;;;;;;;;;5047232;28;20409;-59
2020/12/20 09:25:32;;;;;;;15.52;3.95;;;;;;;;;;5047196;28;20074;-57
2020/12/20 09:28:06;;;;;;;23.98;3.72;;;;;;;;;;5032434;28;20048;-59
2020/12/20 09:30:59;;;;;;;20.60;2.55;;;;;;;;;;5050243;28;20048;-59
2020/12/20 09:33:25;;;;;;;41.80;5.05;;;;;;;;;;5047275;28;20047;-59
2020/12/20 09:35:56;;;;;;;22.73;3.15;;;;;;;;;;5049482;28;20028;-59
2020/12/20 09:38:48;;;;;;;22.80;3.05;;;;;;;;;;5047907;28;20400;-59
2020/12/20 09:41:18;;;;;;;17.17;2.70;;;;;;;;;;5048248;28;20561;-56
2020/12/20 09:43:51;;;;;;;21.55;3.30;;;;;;;;;;5047447;28;20389;-59
2020/12/20 09:46:40;;;;;;;18.45;3.10;;;;;;;;;;5046130;28;20504;-60
2020/12/20 09:49:07;;;;;;;19.75;3.03;;;;;;;;;;5032657;28;20029;-58
2020/12/20 09:51:48;;;;;;;20.10;2.63;;;;;;;;;;5047851;28;20091;-58
2020/12/20 09:54:14;;;;;;;25.38;3.10;;;;;;;;;;5049363;28;20044;-57
2020/12/20 09:56:41;;;;;;;9.25;2.22;;;;;;;;;;5047189;28;20043;-59
2020/12/20 09:59:07;;;;;;;10.55;2.10;;;;;;;;;;5047027;28;20064;-58
2020/12/20 10:01:33;;;;;;;15.55;2.53;;;;;;;;;;5038778;28;20052;-59
2020/12/20 10:03:59;;;;;;;20.55;1.98;;;;;;;;;;5034965;28;20034;-59
2020/12/20 10:06:25;;;;;;;16.15;2.78;;;;;;;;;;5036295;28;20402;-58
2020/12/20 10:09:26;;;;;;;12.90;1.77;;;;;;;;;;5034365;28;20021;-59
2020/12/20 10:11:59;;;;;;;15.30;2.17;;;;;;;;;;5034183;28;20386;-57
2020/12/20 10:14:45;;;;;;;11.63;2.08;;;;;;;;;;5032212;28;20444;-59
2020/12/20 10:17:11;;;;;;;12.43;1.83;;;;;;;;;;5033517;28;20070;-57
2020/12/20 10:19:38;;;;;;;15.85;2.13;;;;;;;;;;5032305;28;20042;-59
2020/12/20 10:22:05;;;;;;;10.93;2.42;;;;;;;;;;5029974;28;20072;-59
2020/12/20 10:24:32;;;;;;;13.02;1.95;;;;;;;;;;5029771;28;20048;-58
2020/12/20 10:26:58;;;;;;;15.18;1.65;;;;;;;;;;5031728;28;20072;-59
2020/12/20 10:29:24;;;;;;;16.27;2.05;;;;;;;;;;5031665;28;20035;-60
2020/12/20 10:31:50;;;;;;;13.50;2.33;;;;;;;;;;5033155;28;20025;-59
2020/12/20 10:34:17;;;;;;;15.15;3.00;;;;;;;;;;5030883;28;20389;-58
2020/12/20 10:36:43;;;;;;;13.57;1.80;;;;;;;;;;5034051;28;20038;-59
2020/12/20 10:39:09;;;;;;;14.48;2.30;;;;;;;;;;5033791;28;20021;-59
2020/12/20 10:41:39;;;;;;;15.27;2.35;;;;;;;;;;5035148;28;20421;-58
2020/12/20 10:44:05;;;;;;;17.33;2.10;;;;;;;;;;5035521;28;20028;-59
2020/12/20 10:46:32;;;;;;;18.00;2.45;;;;;;;;;;5034817;28;20025;-59
2020/12/20 10:48:59;;;;;;;15.57;2.40;;;;;;;;;;5034659;28;20029;-59
2020/12/20 10:51:25;;;;;;;15.13;2.55;;;;;;;;;;5033966;28;20033;-60
2020/12/20 10:53:51;;;;;;;20.63;2.33;;;;;;;;;;5033471;28;20033;-59
2020/12/20 10:56:21;;;;;;;14.82;2.70;;;;;;;;;;5033150;28;20033;-59
2020/12/20 10:58:48;;;;;;;16.30;3.08;;;;;;;;;;5035616;28;20045;-59
2020/12/20 11:01:14;;;;;;;14.60;2.40;;;;;;;;;;5036503;28;20049;-61
2020/12/20 11:03:40;;;;;;;23.80;3.28;;;;;;;;;;5048464;28;20029;-60
2020/12/20 11:06:07;;;;;;;12.93;2.90;;;;;;;;;;5052228;28;20040;-59
2020/12/20 11:08:42;;;;;;;24.50;3.60;;;;;;;;;;5050425;28;20525;-59
2020/12/20 11:11:30;;;;;;;22.40;3.72;;;;;;;;;;5048937;28;20033;-59
2020/12/20 11:14:21;;;;;;;18.17;3.08;;;;;;;;;;5051474;28;20025;-59
2020/12/20 11:16:51;;;;;;;28.70;3.42;;;;;;;;;;5050048;28;20028;-59
2020/12/20 11:19:19;;;;;;;20.48;3.08;;;;;;;;;;5050280;28;20401;-59
2020/12/20 11:21:56;;;;;;;15.82;3.47;;;;;;;;;;5051397;28;20040;-58
2020/12/20 11:24:23;;;;;;;20.95;3.58;;;;;;;;;;5051866;28;20037;-59
2020/12/20 11:26:50;;;;;;;21.73;3.08;;;;;;;;;;5049714;28;20068;-59
2020/12/20 11:29:16;;;;;;;22.27;2.97;;;;;;;;;;5049718;28;20040;-57
2020/12/20 11:31:42;;;;;;;20.77;2.97;;;;;;;;;;5049911;28;20431;-57
2020/12/20 11:34:09;;;;;;;26.67;3.95;;;;;;;;;;5049885;28;20052;-58
2020/12/20 11:36:35;;;;;;;27.40;3.10;;;;;;;;;;5051839;28;20016;-58
2020/12/20 11:39:02;;;;;;;24.38;3.42;;;;;;;;;;5052042;28;20075;-59
2020/12/20 11:41:38;;;;;;;27.95;3.00;;;;;;;;;;5048676;28;20477;-59
2020/12/20 11:44:21;;;;;;;17.42;3.38;;;;;;;;;;5045081;28;20017;-59
2020/12/20 11:46:47;;;;;;;14.13;2.88;;;;;;;;;;5049072;28;20029;-58
2020/12/20 11:49:14;;;;;;;17.52;2.78;;;;;;;;;;5050147;28;20035;-58
2020/12/20 11:51:40;;;;;;;18.45;3.53;;;;;;;;;;5053543;28;20048;-58
2020/12/20 11:54:07;;;;;;;23.52;2.97;;;;;;;;;;5050282;28;20029;-56
2020/12/20 11:56:33;;;;;;;22.70;3.17;;;;;;;;;;5049418;28;20072;-58
2020/12/20 11:59:00;;;;;;;13.68;2.60;;;;;;;;;;5049563;28;20124;-57
2020/12/20 12:01:28;;;;;;;19.10;3.55;;;;;;;;;;5049135;28;20476;-58
2020/12/20 12:03:58;;;;;;;15.18;3.50;;;;;;;;;;5033929;28;20075;-58
2020/12/20 12:06:24;;;;;;;18.90;2.75;;;;;;;;;;5053005;28;20029;-58
2020/12/20 12:08:51;;;;;;;18.48;3.00;;;;;;;;;;5048998;28;20025;-59
2020/12/20 12:11:18;;;;;;;22.02;3.05;;;;;;;;;;5047340;28;20044;-59
2020/12/20 12:13:44;;;;;;;23.25;3.25;;;;;;;;;;5048768;28;20021;-59
2020/12/20 12:16:10;;;;;;;22.65;3.38;;;;;;;;;;5049122;28;20029;-59
2020/12/20 12:18:36;;;;;;;25.92;3.83;;;;;;;;;;5051597;28;20047;-58
2020/12/20 12:21:03;;;;;;;23.88;3.53;;;;;;;;;;5049880;28;20640;-57
2020/12/20 12:23:29;;;;;;;25.73;3.97;;;;;;;;;;5048848;28;20028;-58
2020/12/20 12:25:55;;;;;;;26.33;3.47;;;;;;;;;;5049016;28;20099;-58
2020/12/20 12:28:21;;;;;;;24.27;3.30;;;;;;;;;;5049231;28;20466;-58
2020/12/20 12:30:47;;;;;;;24.90;3.30;;;;;;;;;;5048423;28;20509;-59
2020/12/20 12:33:22;;;;;;;15.67;2.90;;;;;;;;;;5046858;28;20056;-58
2020/12/20 12:35:48;;;;;;;23.05;3.30;;;;;;;;;;5050344;28;20108;-59
2020/12/20 12:38:14;;;;;;;19.48;3.80;;;;;;;;;;5048611;28;20021;-59
2020/12/20 12:40:40;;;;;;;31.55;4.78;;;;;;;;;;5048476;28;20087;-59
2020/12/20 12:43:06;;;;;;;18.50;3.10;;;;;;;;;;5048163;28;20025;-58
2020/12/20 12:45:32;;;;;;;21.15;3.42;;;;;;;;;;5051104;28;20032;-60
2020/12/20 12:47:58;;;;;;;22.50;3.53;;;;;;;;;;5049436;28;20025;-59
2020/12/20 12:50:25;;;;;;;22.40;3.28;;;;;;;;;;5048418;28;20025;-58
2020/12/20 12:52:51;;;;;;;23.52;3.85;;;;;;;;;;5048152;28;20033;-60
2020/12/20 12:55:17;;;;;;;21.05;3.00;;;;;;;;;;5048470;28;20024;-59
2020/12/20 12:57:43;;;;;;;25.10;3.55;;;;;;;;;;5049101;28;20069;-59
2020/12/20 13:00:24;;;;;;;26.33;4.43;;;;;;;;;;5049057;28;20040;-59
2020/12/20 13:02:58;;;;;;;19.30;3.83;;;;;;;;;;5045839;28;20164;-58
2020/12/20 13:05:24;;;;;;;21.40;2.65;;;;;;;;;;5048089;28;20515;-58
2020/12/20 13:07:50;;;;;;;25.35;3.58;;;;;;;;;;5047933;28;20009;-58
2020/12/20 13:10:17;;;;;;;18.27;2.97;;;;;;;;;;5048208;28;20746;-59
2020/12/20 13:12:43;;;;;;;26.83;4.13;;;;;;;;;;5049971;28;20814;-59
2020/12/20 13:15:09;;;;;;;20.65;2.85;;;;;;;;;;5049724;28;20426;-59
2020/12/20 13:17:35;;;;;;;23.48;2.95;;;;;;;;;;5048020;28;20029;-59
2020/12/20 13:20:01;;;;;;;13.98;2.50;;;;;;;;;;5047690;28;20021;-59
2020/12/20 13:22:27;;;;;;;16.40;2.97;;;;;;;;;;5047855;28;20108;-59
2020/12/20 13:24:54;;;;;;;18.63;2.70;;;;;;;;;;5032605;28;20029;-59
2020/12/20 13:27:20;;;;;;;18.50;3.15;;;;;;;;;;5051098;28;20562;-59
2020/12/20 13:29:46;;;;;;;23.95;3.55;;;;;;;;;;5047184;28;20024;-58
2020/12/20 13:32:12;;;;;;;19.58;2.95;;;;;;;;;;5047555;28;20021;-59
2020/12/20 13:34:38;;;;;;;17.08;2.70;;;;;;;;;;5047591;28;20028;-58
2020/12/20 13:37:04;;;;;;;16.23;2.95;;;;;;;;;;5047647;28;20029;-58
2020/12/20 13:39:30;;;;;;;14.70;2.35;;;;;;;;;;5050424;28;20028;-59
2020/12/20 13:41:56;;;;;;;25.10;3.72;;;;;;;;;;5048323;28;20421;-59
2020/12/20 13:44:22;;;;;;;20.35;3.35;;;;;;;;;;5045547;28;20021;-58
2020/12/20 13:46:49;;;;;;;13.63;2.30;;;;;;;;;;5047120;28;20161;-59
2020/12/20 13:49:16;;;;;;;15.43;3.20;;;;;;;;;;5047068;28;20113;-57
2020/12/20 13:51:42;;;;;;;15.52;3.35;;;;;;;;;;5048778;28;20025;-56
2020/12/20 13:54:08;;;;;;;18.27;2.30;;;;;;;;;;5049009;28;20025;-57
2020/12/20 13:56:34;;;;;;;15.80;2.20;;;;;;;;;;5047089;28;20485;-58
2020/12/20 13:59:00;;;;;;;17.38;2.10;;;;;;;;;;5047271;28;20013;-58
2020/12/20 14:01:26;;;;;;;17.75;3.72;;;;;;;;;;5046938;28;20083;-58
2020/12/20 14:03:53;;;;;;;15.38;2.67;;;;;;;;;;5047766;28;20045;-58
2020/12/20 14:06:19;;;;;;;19.48;2.90;;;;;;;;;;5049474;28;20029;-59
2020/12/20 14:08:45;;;;;;;14.52;2.85;;;;;;;;;;5049262;28;20107;-59
2020/12/20 14:11:15;;;;;;;18.10;3.20;;;;;;;;;;5047057;28;20036;-58
2020/12/20 14:13:41;;;;;;;10.25;2.10;;;;;;;;;;5051175;28;20059;-58
2020/12/20 14:16:10;;;;;;;17.20;2.40;;;;;;;;;;5051030;28;20474;-58
2020/12/20 14:18:36;;;;;;;15.15;3.17;;;;;;;;;;5053702;28;20083;-56
2020/12/20 14:21:02;;;;;;;16.17;2.70;;;;;;;;;;5052037;28;20047;-58
2020/12/20 14:23:28;;;;;;;16.02;2.78;;;;;;;;;;5051021;28;20017;-58
2020/12/20 14:25:54;;;;;;;11.93;2.03;;;;;;;;;;5050778;28;20071;-59
2020/12/20 14:28:20;;;;;;;19.20;2.22;;;;;;;;;;5050877;28;20036;-58
2020/12/20 14:30:47;;;;;;;18.58;2.25;;;;;;;;;;5052565;28;20029;-59
2020/12/20 14:33:14;;;;;;;12.73;2.17;;;;;;;;;;5055644;28;20135;-58
2020/12/20 14:35:40;;;;;;;16.73;2.53;;;;;;;;;;5050257;28;20025;-58
2020/12/20 14:38:06;;;;;;;21.52;2.60;;;;;;;;;;5050805;28;20070;-58
2020/12/20 14:40:33;;;;;;;19.05;2.63;;;;;;;;;;5050752;28;20120;-58
2020/12/20 14:42:59;;;;;;;15.07;2.35;;;;;;;;;;5050386;28;20029;-57
2020/12/20 14:45:25;;;;;;;19.48;2.42;;;;;;;;;;5054114;28;20078;-59
2020/12/20 14:47:51;;;;;;;21.27;3.67;;;;;;;;;;5049087;28;20052;-59
2020/12/20 14:50:17;;;;;;;17.27;2.60;;;;;;;;;;5050219;28;20021;-59
2020/12/20 14:52:44;;;;;;;19.02;3.38;;;;;;;;;;5050022;28;20052;-57
2020/12/20 14:55:11;;;;;;;14.77;2.88;;;;;;;;;;5050379;28;20103;-56
2020/12/20 14:57:37;;;;;;;14.00;2.15;;;;;;;;;;5053052;28;20692;-56
2020/12/20 15:00:04;;;;;;;19.10;3.60;;;;;;;;;;5051044;28;20044;-59
2020/12/20 15:02:31;;;;;;;12.13;2.28;;;;;;;;;;5050202;28;20113;-59
2020/12/20 15:04:57;;;;;;;16.08;2.97;;;;;;;;;;5049681;28;20017;-59
2020/12/20 15:07:23;;;;;;;14.18;2.97;;;;;;;;;;5046890;28;20025;-57
2020/12/20 15:09:49;;;;;;;14.55;2.10;;;;;;;;;;5050987;28;20076;-59
2020/12/20 15:12:15;;;;;;;15.15;2.60;;;;;;;;;;5052397;28;20100;-57
2020/12/20 15:14:41;;;;;;;26.10;3.00;;;;;;;;;;5050342;28;20024;-58
2020/12/20 15:17:08;;;;;;;12.93;2.78;;;;;;;;;;5049766;28;20083;-59
2020/12/20 15:19:34;;;;;;;19.40;3.08;;;;;;;;;;5050014;28;20448;-58
2020/12/20 15:22:00;;;;;;;18.13;2.40;;;;;;;;;;5049853;28;20048;-59
2020/12/20 15:24:26;;;;;;;19.25;3.13;;;;;;;;;;5052558;28;20033;-58
2020/12/20 15:26:52;;;;;;;22.73;4.35;;;;;;;;;;5050952;28;20029;-59
2020/12/20 15:29:18;;;;;;;15.60;2.83;;;;;;;;;;5049372;28;20028;-58
2020/12/20 15:31:45;;;;;;;19.45;2.78;;;;;;;;;;5049610;28;20136;-61
2020/12/20 15:34:11;;;;;;;23.77;3.85;;;;;;;;;;5049357;28;20026;-58
2020/12/20 15:36:39;;;;;;;19.27;3.83;;;;;;;;;;5051773;28;20084;-57
2020/12/20 15:39:06;;;;;;;15.02;3.30;;;;;;;;;;5050711;28;20104;-59
2020/12/20 15:41:32;;;;;;;17.90;3.50;;;;;;;;;;5049531;28;20041;-57
2020/12/20 15:43:58;;;;;;;25.27;3.90;;;;;;;;;;5049642;28;20017;-58
2020/12/20 15:46:24;;;;;;;19.50;3.08;;;;;;;;;;5049560;28;20031;-59
2020/12/20 15:48:50;;;;;;;14.57;2.72;;;;;;;;;;5050184;28;20024;-58
2020/12/20 15:51:17;;;;;;;19.50;3.30;;;;;;;;;;5049972;28;20064;-59
2020/12/20 15:53:43;;;;;;;31.00;4.07;;;;;;;;;;5050405;28;20048;-58
2020/12/20 15:56:09;;;;;;;20.80;3.53;;;;;;;;;;5049611;28;20037;-59
2020/12/20 15:58:35;;;;;;;24.73;4.80;;;;;;;;;;5049423;28;20489;-59
2020/12/20 16:01:02;;;;;;;18.00;3.63;;;;;;;;;;5049476;28;20505;-58
2020/12/20 16:03:29;;;;;;;19.70;3.28;;;;;;;;;;5033237;28;20025;-58
2020/12/20 16:05:55;;;;;;;14.30;3.72;;;;;;;;;;5034197;28;20037;-57
2020/12/20 16:08:22;;;;;;;21.73;3.65;;;;;;;;;;5033724;28;20025;-59
2020/12/20 16:10:48;;;;;;;16.92;2.67;;;;;;;;;;5036140;28;20496;-60
2020/12/20 16:13:14;;;;;;;16.65;3.05;;;;;;;;;;5032324;28;20025;-59
2020/12/20 16:15:40;;;;;;;17.20;2.40;;;;;;;;;;5030358;28;20033;-57
2020/12/20 16:18:06;;;;;;;20.17;3.65;;;;;;;;;;5031070;28;20025;-58
2020/12/20 16:20:33;;;;;;;21.05;3.17;;;;;;;;;;5033459;28;20492;-58
2020/12/20 16:22:59;;;;;;;20.77;4.10;;;;;;;;;;5030870;28;20030;-57
2020/12/20 16:25:25;;;;;;;16.92;3.53;;;;;;;;;;5029858;28;20508;-58
2020/12/20 16:27:51;;;;;;;23.65;3.22;;;;;;;;;;5030485;28;20461;-59
2020/12/20 16:30:17;;;;;;;20.70;4.53;;;;;;;;;;5029288;28;20044;-59
2020/12/20 16:32:43;;;;;;;16.73;2.90;;;;;;;;;;5030071;28;20044;-59
2020/12/20 16:35:10;;;;;;;31.33;8.30;;;;;;;;;;5029603;28;20553;-60
2020/12/20 16:37:36;;;;;;;23.30;6.28;;;;;;;;;;5030410;28;20030;-60
2020/12/20 16:40:04;;;;;;;26.40;6.63;;;;;;;;;;5029001;28;20026;-60
2020/12/20 16:42:31;;;;;;;25.45;6.00;;;;;;;;;;5029639;28;20037;-60
2020/12/20 16:44:57;;;;;;;27.00;5.90;;;;;;;;;;5029872;28;20037;-60
2020/12/20 16:47:23;;;;;;;21.45;7.10;;;;;;;;;;5033010;28;20032;-60
2020/12/20 16:49:50;;;;;;;27.83;8.70;;;;;;;;;;5030685;28;20033;-59
2020/12/20 16:52:16;;;;;;;30.33;10.45;;;;;;;;;;5034164;28;20040;-59
2020/12/20 16:54:42;;;;;;;33.15;9.13;;;;;;;;;;5035483;28;20518;-60
2020/12/20 16:57:08;;;;;;;24.88;8.90;;;;;;;;;;5030213;28;20720;-61
2020/12/20 16:59:34;;;;;;;30.17;10.27;;;;;;;;;;5035259;28;20446;-60
2020/12/20 17:02:01;;;;;;;31.20;7.85;;;;;;;;;;5032140;28;20103;-60
2020/12/20 17:04:27;;;;;;;29.00;7.45;;;;;;;;;;5027108;28;20024;-60
2020/12/20 17:06:53;;;;;;;22.73;4.80;;;;;;;;;;5029165;28;20037;-60
2020/12/20 17:09:20;;;;;;;21.58;4.85;;;;;;;;;;5034281;28;20088;-60
2020/12/20 17:11:46;;;;;;;25.67;5.35;;;;;;;;;;5032723;28;20053;-61
2020/12/20 17:14:12;;;;;;;18.45;3.95;;;;;;;;;;5032714;28;20029;-60
2020/12/20 17:16:39;;;;;;;23.35;4.40;;;;;;;;;;5032839;28;20080;-60
2020/12/20 17:19:05;;;;;;;22.33;5.18;;;;;;;;;;5028008;28;20647;-60
2020/12/20 17:21:31;;;;;;;20.08;3.42;;;;;;;;;;5029509;28;20064;-60
2020/12/20 17:23:57;;;;;;;21.88;4.32;;;;;;;;;;5033616;28;20067;-60
2020/12/20 17:26:24;;;;;;;13.90;2.42;;;;;;;;;;5049984;28;20029;-59
2020/12/20 17:28:50;;;;;;;9.55;2.13;;;;;;;;;;5054455;28;20033;-60
2020/12/20 17:31:17;;;;;;;12.20;2.03;;;;;;;;;;5054039;28;20032;-60
2020/12/20 17:33:43;;;;;;;11.40;1.73;;;;;;;;;;5057004;28;20435;-60
2020/12/20 17:36:13;;;;;;;11.20;1.98;;;;;;;;;;5056865;28;20305;-59
2020/12/20 17:38:40;;;;;;;12.57;2.30;;;;;;;;;;5056737;28;20021;-60
2020/12/20 17:41:06;;;;;;;10.95;2.30;;;;;;;;;;5054455;28;20039;-60
2020/12/20 17:43:32;;;;;;;10.70;2.00;;;;;;;;;;5054834;28;20067;-60
2020/12/20 17:45:58;;;;;;;11.35;3.22;;;;;;;;;;5055289;28;20020;-60
2020/12/20 17:48:24;;;;;;;11.48;4.30;;;;;;;;;;5056045;28;20512;-60
2020/12/20 17:50:50;;;;;;;12.38;3.50;;;;;;;;;;5054981;28;20040;-60
2020/12/20 17:53:16;;;;;;;12.80;3.08;;;;;;;;;;5055067;28;20082;-60
2020/12/20 17:55:43;;;;;;;11.52;3.13;;;;;;;;;;5055730;28;20024;-60
2020/12/20 17:58:09;;;;;;;13.40;2.58;;;;;;;;;;5050084;28;20021;-60
2020/12/20 18:00:35;;;;;;;12.70;3.88;;;;;;;;;;5049567;28;20053;-59
2020/12/20 18:03:01;;;;;;;16.88;2.60;;;;;;;;;;5049839;28;20036;-59
2020/12/20 18:05:27;;;;;;;19.02;3.42;;;;;;;;;;5049181;28;20039;-58
2020/12/20 18:07:54;;;;;;;12.35;2.30;;;;;;;;;;5048844;28;20053;-60
2020/12/20 18:10:20;;;;;;;16.52;3.33;;;;;;;;;;5045155;28;20029;-59
2020/12/20 18:12:46;;;;;;;10.07;2.60;;;;;;;;;;5047870;28;20489;-60
2020/12/20 18:15:12;;;;;;;18.40;3.47;;;;;;;;;;5049377;28;20067;-60
2020/12/20 18:17:38;;;;;;;14.38;3.17;;;;;;;;;;5046583;28;20115;-60
2020/12/20 18:20:05;;;;;;;12.18;2.65;;;;;;;;;;5046460;28;20409;-60
2020/12/20 18:22:31;;;;;;;10.95;3.28;;;;;;;;;;5048039;28;20115;-59
2020/12/20 18:24:58;;;;;;;12.88;4.25;;;;;;;;;;5046828;28;20517;-59
2020/12/20 18:27:24;;;;;;;15.73;3.22;;;;;;;;;;5050598;28;20043;-60
2020/12/20 18:29:51;;;;;;;13.60;2.90;;;;;;;;;;5047295;28;20059;-59
2020/12/20 18:32:17;;;;;;;14.18;3.50;;;;;;;;;;5046929;28;20049;-59
2020/12/20 18:34:43;;;;;;;13.25;3.53;;;;;;;;;;5047312;28;20682;-59
2020/12/20 18:37:13;;;;;;;14.90;4.25;;;;;;;;;;5045909;28;20044;-59
2020/12/20 18:39:39;;;;;;;26.02;5.38;;;;;;;;;;5049162;28;20029;-59
2020/12/20 18:42:19;;;;;;;11.73;4.47;;;;;;;;;;5047056;28;20041;-59
2020/12/20 18:44:48;;;;;;;16.98;4.88;;;;;;;;;;5047036;28;20032;-60
2020/12/20 18:47:18;;;;;;;14.75;3.67;;;;;;;;;;5046958;28;20033;-59
2020/12/20 18:49:44;;;;;;;16.60;4.05;;;;;;;;;;5047043;28;20037;-60
2020/12/20 18:52:10;;;;;;;19.98;4.15;;;;;;;;;;5046996;28;20026;-60
2020/12/20 18:54:37;;;;;;;12.32;4.07;;;;;;;;;;5049382;28;20078;-59
2020/12/20 18:57:05;;;;;;;16.52;4.53;;;;;;;;;;5048224;28;20037;-59
2020/12/20 18:59:31;;;;;;;15.73;4.80;;;;;;;;;;5051667;28;20098;-60
2020/12/20 19:01:57;;;;;;;18.13;5.82;;;;;;;;;;5043564;28;20702;-59
2020/12/20 19:04:23;;;;;;;15.07;6.47;;;;;;;;;;5038032;28;20669;-60
2020/12/20 19:06:49;;;;;;;15.57;5.47;;;;;;;;;;5033430;28;20047;-60
2020/12/20 19:09:16;;;;;;;14.48;6.20;;;;;;;;;;5033143;28;20026;-60
2020/12/20 19:11:42;;;;;;;15.82;5.75;;;;;;;;;;5033920;28;20025;-60
2020/12/20 19:14:08;;;;;;;15.15;4.57;;;;;;;;;;5041617;28;20099;-59
2020/12/20 19:16:44;;;;;;;15.75;5.00;;;;;;;;;;5041486;28;20091;-59
2020/12/20 19:19:12;;;;;;;20.42;5.35;;;;;;;;;;5037744;28;20033;-59
2020/12/20 19:21:39;;;;;;;17.27;5.15;;;;;;;;;;5048537;28;20508;-60
2020/12/20 19:24:05;;;;;;;17.73;5.32;;;;;;;;;;5049561;28;20116;-60
2020/12/20 19:26:31;;;;;;;17.08;5.20;;;;;;;;;;5038578;28;20179;-60
2020/12/20 19:28:58;;;;;;;12.35;4.70;;;;;;;;;;5040210;28;20025;-59
2020/12/20 19:31:24;;;;;;;18.42;4.63;;;;;;;;;;5046450;28;20025;-59
2020/12/20 19:33:51;;;;;;;12.07;4.55;;;;;;;;;;5047853;28;20053;-60
2020/12/20 19:36:17;;;;;;;16.88;4.20;;;;;;;;;;5049187;28;20473;-60
2020/12/20 19:38:43;;;;;;;19.70;4.78;;;;;;;;;;5046205;28;20021;-60
2020/12/20 19:41:13;;;;;;;17.65;5.90;;;;;;;;;;5045865;28;20051;-59
2020/12/20 19:43:40;;;;;;;20.73;6.00;;;;;;;;;;5046636;28;20025;-59
2020/12/20 19:46:07;;;;;;;19.42;6.05;;;;;;;;;;5044069;28;20025;-59
2020/12/20 19:48:33;;;;;;;19.05;6.22;;;;;;;;;;5049001;28;20040;-59
2020/12/20 19:50:59;;;;;;;20.88;6.03;;;;;;;;;;5047374;28;20025;-60
2020/12/20 19:53:25;;;;;;;24.88;6.05;;;;;;;;;;5044154;28;20099;-59
2020/12/20 19:55:52;;;;;;;20.65;5.35;;;;;;;;;;5038065;28;20033;-60
2020/12/20 19:58:18;;;;;;;20.02;5.38;;;;;;;;;;5046298;28;20458;-59
2020/12/20 20:00:44;;;;;;;19.27;6.00;;;;;;;;;;5047675;28;20316;-59
2020/12/20 20:03:11;;;;;;;24.98;5.88;;;;;;;;;;5047880;28;20020;-59
2020/12/20 20:05:37;;;;;;;20.88;6.25;;;;;;;;;;5044435;28;20040;-59
2020/12/20 20:08:03;;;;;;;21.10;5.53;;;;;;;;;;5044231;28;20106;-59
2020/12/20 20:10:29;;;;;;;18.23;4.30;;;;;;;;;;5046027;28;20025;-59
2020/12/20 20:12:56;;;;;;;22.55;5.78;;;;;;;;;;5037384;28;20039;-59
2020/12/20 20:15:22;;;;;;;19.33;5.80;;;;;;;;;;5049277;28;20067;-59
2020/12/20 20:17:50;;;;;;;28.23;6.15;;;;;;;;;;5045743;28;20498;-59
2020/12/20 20:20:16;;;;;;;15.10;4.90;;;;;;;;;;5045179;28;20024;-59
2020/12/20 20:22:43;;;;;;;23.98;5.72;;;;;;;;;;5047351;28;20418;-59
2020/12/20 20:25:12;;;;;;;26.63;6.13;;;;;;;;;;5038288;28;20022;-59
2020/12/20 20:27:38;;;;;;;20.52;5.13;;;;;;;;;;5048663;28;20056;-60
2020/12/20 20:30:05;;;;;;;21.98;5.18;;;;;;;;;;5046772;28;20131;-59
2020/12/20 20:32:32;;;;;;;21.00;4.82;;;;;;;;;;5045348;28;20028;-60
2020/12/20 20:34:59;;;;;;;24.58;5.68;;;;;;;;;;5045724;28;20024;-60
2020/12/20 20:37:25;;;;;;;22.48;5.05;;;;;;;;;;5045441;28;20029;-60
2020/12/20 20:39:51;;;;;;;25.80;4.53;;;;;;;;;;5046437;28;20044;-59